Time;durP1;ratioP1;P1;durP2;ratioP2;P2;SDS_P1;SDS_P2;PMS_P1;PMS_P2;Temp;Humidity;BMP_temperature;BMP_pressure;BME280_temperature;BME280_humidity;BME280_pressure;Samples;Min_cycle;Max_cycle;Signal;HPM_P1;HPM_P2
2023/08/20 00:01:15;;;;;;;6.75;2.70;;;;;;;17.22;89.02;102118.59;6097012;19;20137;-73
2023/08/20 00:03:21;;;;;;;9.07;2.65;;;;;;;17.24;88.53;102120.25;6099006;19;20006;-72
2023/08/20 00:05:29;;;;;;;7.60;2.45;;;;;;;17.28;88.76;102129.81;6092442;19;20030;-71
2023/08/20 00:07:35;;;;;;;6.13;2.17;;;;;;;17.39;89.86;102137.28;6101904;19;20027;-73
2023/08/20 00:09:40;;;;;;;4.95;2.60;;;;;;;17.42;89.84;102131.81;6102211;19;20614;-73
2023/08/20 00:11:46;;;;;;;6.82;2.38;;;;;;;17.49;90.41;102132.38;6099199;19;20356;-72
2023/08/20 00:13:56;;;;;;;7.47;2.53;;;;;;;17.53;89.78;102132.13;6100790;19;20042;-72
2023/08/20 00:16:02;;;;;;;6.32;2.40;;;;;;;17.61;89.71;102125.59;6103373;19;20023;-72
2023/08/20 00:18:08;;;;;;;5.97;2.45;;;;;;;17.61;89.16;102122.94;6096994;19;20389;-73
2023/08/20 00:20:16;;;;;;;3.92;2.40;;;;;;;17.59;88.72;102122.13;6092479;19;20014;-73
2023/08/20 00:22:22;;;;;;;6.05;2.17;;;;;;;17.58;89.23;102123.94;6097467;19;20019;-73
2023/08/20 00:24:35;;;;;;;6.57;2.28;;;;;;;17.53;88.80;102137.44;6096653;19;20010;-72
2023/08/20 00:26:40;;;;;;;5.47;2.13;;;;;;;17.52;89.08;102137.53;6091710;19;20010;-74
2023/08/20 00:28:46;;;;;;;3.95;1.98;;;;;;;17.48;89.27;102142.16;6097688;19;20005;-72
2023/08/20 00:30:56;;;;;;;6.85;2.63;;;;;;;17.49;89.64;102154.50;6099249;19;20090;-73
2023/08/20 00:33:02;;;;;;;5.22;2.05;;;;;;;17.48;89.49;102154.56;6097217;19;20010;-74
2023/08/20 00:35:08;;;;;;;7.85;2.58;;;;;;;17.54;89.89;102163.09;6094052;19;20010;-74
2023/08/20 00:37:13;;;;;;;5.47;2.50;;;;;;;17.58;90.06;102162.94;6089286;19;19999;-75
2023/08/20 00:39:18;;;;;;;7.32;2.70;;;;;;;17.60;90.05;102169.06;6093526;19;20010;-75
2023/08/20 00:41:23;;;;;;;4.60;1.95;;;;;;;17.61;90.08;102176.94;6093668;19;20045;-75
2023/08/20 00:43:28;;;;;;;2.83;1.77;;;;;;;17.65;89.54;102180.34;6097625;19;20037;-75
2023/08/20 00:45:31;;;;;;;6.25;2.20;;;;;;;17.70;90.26;102175.66;6099386;19;20009;-74
2023/08/20 00:47:41;;;;;;;5.30;2.10;;;;;;;17.74;90.41;102174.53;6099298;19;20047;-75
2023/08/20 00:49:46;;;;;;;4.10;1.98;;;;;;;17.74;90.22;102174.53;6098123;19;20082;-75
2023/08/20 00:51:53;;;;;;;4.95;1.90;;;;;;;17.75;90.20;102171.81;6097627;19;20031;-75
2023/08/20 00:53:58;;;;;;;5.65;2.10;;;;;;;17.78;90.79;102166.34;6097300;19;20011;-75
2023/08/20 00:56:03;;;;;;;5.97;2.00;;;;;;;17.76;90.12;102167.38;6098163;19;20573;-75
2023/08/20 00:58:08;;;;;;;7.20;2.33;;;;;;;17.76;90.57;102180.66;6097517;19;20042;-74
2023/08/20 01:00:14;;;;;;;6.90;2.45;;;;;;;17.82;90.48;102172.41;6094741;19;20007;-75
2023/08/20 01:02:20;;;;;;;7.95;2.47;;;;;;;17.78;90.75;102177.00;6094384;19;20010;-74
2023/08/20 01:04:29;;;;;;;6.10;2.25;;;;;;;17.75;90.48;102181.59;6098938;19;20013;-74
2023/08/20 01:06:42;;;;;;;5.43;1.90;;;;;;;17.75;90.64;102184.25;6097967;19;20042;-76
2023/08/20 01:08:51;;;;;;;4.97;2.20;;;;;;;17.77;91.18;102188.56;6094951;19;20006;-75
2023/08/20 01:11:03;;;;;;;7.38;2.33;;;;;;;17.78;91.53;102186.75;6097604;19;20011;-75
2023/08/20 01:13:10;;;;;;;8.97;2.47;;;;;;;17.78;92.11;102184.97;6087463;19;20040;-75
2023/08/20 01:15:16;;;;;;;7.05;2.15;;;;;;;17.80;91.82;102190.25;6100348;19;20561;-75
2023/08/20 01:17:21;;;;;;;8.30;2.17;;;;;;;17.81;91.58;102185.78;6101591;19;20025;-76
2023/08/20 01:19:26;;;;;;;5.75;2.33;;;;;;;17.81;91.33;102185.78;6098472;19;20023;-76
2023/08/20 01:21:40;;;;;;;4.75;2.30;;;;;;;17.81;91.69;102188.44;6099970;19;20015;-76
2023/08/20 01:24:02;;;;;;;2.55;1.80;;;;;;;17.81;91.70;102181.31;6101418;19;20021;-77
2023/08/20 01:26:27;;;;;;;7.72;2.63;;;;;;;17.80;92.03;102186.72;6101130;19;20011;-75
2023/08/20 01:28:34;;;;;;;10.00;2.88;;;;;;;17.76;92.14;102188.63;6096568;19;20006;-74
2023/08/20 01:30:40;;;;;;;5.43;2.17;;;;;;;17.73;91.72;102186.13;6094771;19;20476;-77
2023/08/20 01:32:46;;;;;;;5.70;2.47;;;;;;;17.68;92.33;102190.81;6097298;19;20034;-74
2023/08/20 01:34:50;;;;;;;5.28;2.92;;;;;;;17.65;91.88;102183.00;6100453;19;20086;-74
2023/08/20 01:36:55;;;;;;;4.85;2.03;;;;;;;17.60;92.31;102187.66;6101125;19;20022;-73
2023/08/20 01:39:04;;;;;;;5.50;1.98;;;;;;;17.53;92.76;102187.94;6102279;19;20016;-74
2023/08/20 01:41:09;;;;;;;8.32;2.20;;;;;;;17.48;93.09;102190.00;6099040;19;20093;-75
2023/08/20 01:43:15;;;;;;;5.55;2.20;;;;;;;17.43;93.76;102186.69;6101150;19;20254;-74
2023/08/20 01:45:23;;;;;;;6.20;2.30;;;;;;;17.42;94.06;102186.75;6097485;19;20007;-74
2023/08/20 01:47:29;;;;;;;8.38;2.17;;;;;;;17.37;93.96;102196.75;6092846;19;20415;-75
2023/08/20 01:49:34;;;;;;;6.00;2.63;;;;;;;17.33;94.25;102185.41;6095361;19;20046;-74
2023/08/20 01:51:39;;;;;;;8.02;2.83;;;;;;;17.33;94.50;102180.94;6095949;19;20025;-74
2023/08/20 01:53:46;;;;;;;5.20;2.22;;;;;;;17.31;94.92;102181.94;6094680;19;20470;-74
2023/08/20 01:55:51;;;;;;;4.97;2.53;;;;;;;17.28;94.50;102182.09;6098131;19;20108;-74
2023/08/20 01:58:00;;;;;;;9.88;2.30;;;;;;;17.24;95.49;102193.78;6094851;19;20106;-75
2023/08/20 02:00:06;;;;;;;4.85;2.25;;;;;;;17.14;94.54;102187.19;6097596;19;20011;-75
2023/08/20 02:02:14;;;;;;;6.00;2.20;;;;;;;17.13;94.97;102177.50;6094766;19;20430;-74
2023/08/20 02:04:19;;;;;;;6.90;2.30;;;;;;;17.11;97.22;102170.47;6096198;19;20003;-75
2023/08/20 02:06:24;;;;;;;3.65;2.08;;;;;;;17.09;96.27;102174.13;6092413;19;20003;-75
2023/08/20 02:08:30;;;;;;;5.65;2.33;;;;;;;17.01;95.89;102174.50;6093674;19;20006;-74
2023/08/20 02:10:35;;;;;;;4.78;2.05;;;;;;;16.98;95.29;102174.63;6097155;19;20011;-75
2023/08/20 02:12:43;;;;;;;6.07;2.38;;;;;;;16.97;95.66;102172.91;6095760;19;20010;-75
2023/08/20 02:14:48;;;;;;;5.10;1.88;;;;;;;16.92;97.11;102172.25;6095448;19;20038;-74
2023/08/20 02:16:55;;;;;;;5.95;1.98;;;;;;;16.86;96.81;102176.03;6096711;19;20007;-74
2023/08/20 02:19:04;;;;;;;8.02;2.63;;;;;;;16.83;97.32;102180.66;6094911;19;20003;-74
2023/08/20 02:21:10;;;;;;;5.55;2.15;;;;;;;16.81;98.08;102188.66;6095219;19;20032;-74
2023/08/20 02:23:15;;;;;;;7.07;1.80;;;;;;;16.75;97.56;102188.06;6094160;19;20006;-74
2023/08/20 02:25:20;;;;;;;5.97;2.13;;;;;;;16.71;98.42;102194.44;6085880;19;21117;-74
2023/08/20 02:27:25;;;;;;;4.35;2.03;;;;;;;16.67;97.51;102194.56;6095441;19;20430;-74
2023/08/20 02:29:30;;;;;;;7.43;2.22;;;;;;;16.60;98.30;102186.94;6094917;19;20034;-74
2023/08/20 02:31:36;;;;;;;5.30;2.08;;;;;;;16.62;97.43;102196.56;6095641;19;20352;-74
2023/08/20 02:33:43;;;;;;;9.25;2.47;;;;;;;16.59;98.07;102186.09;6094901;19;20011;-74
2023/08/20 02:35:52;;;;;;;5.35;2.10;;;;;;;16.60;98.69;102184.28;6095950;19;20085;-75
2023/08/20 02:38:00;;;;;;;5.82;2.03;;;;;;;16.56;98.69;102185.34;6095044;19;20010;-75
2023/08/20 02:40:08;;;;;;;6.65;2.20;;;;;;;16.53;98.76;102189.00;6093968;19;20118;-74
2023/08/20 02:42:13;;;;;;;8.73;2.20;;;;;;;16.50;99.38;102198.88;6088016;19;20428;-75
2023/08/20 02:44:18;;;;;;;6.93;2.65;;;;;;;16.45;98.90;102191.13;6097950;19;20403;-75
2023/08/20 02:46:25;;;;;;;5.28;2.33;;;;;;;16.44;98.24;102194.72;6095716;19;20274;-75
2023/08/20 02:48:30;;;;;;;7.38;2.67;;;;;;;16.42;99.27;102205.38;6097592;19;20078;-75
2023/08/20 02:50:35;;;;;;;7.05;2.13;;;;;;;16.44;99.76;102200.88;6099216;19;20038;-76
2023/08/20 02:52:44;;;;;;;7.15;2.40;;;;;;;16.45;99.86;102207.91;6092385;19;20034;-74
2023/08/20 02:54:49;;;;;;;10.02;2.92;;;;;;;16.52;100.00;102212.97;6095098;19;20042;-74
2023/08/20 02:56:54;;;;;;;4.88;2.53;;;;;;;16.55;100.00;102216.34;6091067;19;20560;-74
2023/08/20 02:59:00;;;;;;;8.98;2.40;;;;;;;16.60;100.00;102217.00;6096549;19;20063;-74
2023/08/20 03:01:05;;;;;;;3.97;2.17;;;;;;;16.62;100.00;102228.41;6097366;19;20034;-73
2023/08/20 03:03:10;;;;;;;7.13;2.83;;;;;;;16.66;100.00;102227.31;6093475;19;20303;-74
2023/08/20 03:05:15;;;;;;;5.95;2.60;;;;;;;16.70;100.00;102221.91;6096806;19;20583;-75
2023/08/20 03:07:20;;;;;;;6.82;2.33;;;;;;;16.69;100.00;102229.00;6100637;19;20535;-74
2023/08/20 03:09:28;;;;;;;7.00;2.35;;;;;;;16.67;100.00;102234.38;6102514;19;20617;-74
2023/08/20 03:11:33;;;;;;;7.78;2.25;;;;;;;16.63;100.00;102230.13;6092518;19;20021;-71
2023/08/20 03:13:38;;;;;;;6.00;2.53;;;;;;;16.61;100.00;102228.47;6098520;19;20015;-72
2023/08/20 03:15:44;;;;;;;5.88;2.30;;;;;;;16.56;100.00;102226.03;6101050;19;20070;-71
2023/08/20 03:17:49;;;;;;;8.32;2.45;;;;;;;16.57;100.00;102232.19;6092037;19;20028;-71
2023/08/20 03:19:59;;;;;;;5.40;2.97;;;;;;;16.53;100.00;102226.16;6100136;19;20081;-73
2023/08/20 03:22:04;;;;;;;7.85;2.60;;;;;;;16.48;100.00;102217.50;6102283;19;20006;-70
2023/08/20 03:24:10;;;;;;;9.52;3.45;;;;;;;16.43;100.00;102219.53;6099247;19;20035;-71
2023/08/20 03:26:18;;;;;;;3.92;2.00;;;;;;;16.42;100.00;102223.09;6096854;19;20090;-72
2023/08/20 03:28:24;;;;;;;5.55;2.22;;;;;;;16.37;100.00;102222.44;6096835;19;20494;-72
2023/08/20 03:30:29;;;;;;;6.53;2.38;;;;;;;16.33;100.00;102219.06;6097383;19;20010;-71
2023/08/20 03:32:35;;;;;;;4.00;2.40;;;;;;;16.29;100.00;102214.78;6101258;19;20009;-70
2023/08/20 03:34:39;;;;;;;10.75;2.50;;;;;;;16.26;100.00;102222.03;6098525;19;20577;-72
2023/08/20 03:36:46;;;;;;;5.05;2.17;;;;;;;16.24;100.00;102215.00;6104118;19;20037;-72
2023/08/20 03:38:51;;;;;;;4.75;2.45;;;;;;;16.22;100.00;102216.88;6104788;19;20018;-73
2023/08/20 03:40:59;;;;;;;5.30;2.65;;;;;;;16.19;100.00;102217.00;6104882;19;20002;-73
2023/08/20 03:43:07;;;;;;;3.80;2.10;;;;;;;16.17;100.00;102210.88;6103864;19;20017;-71
2023/08/20 03:45:13;;;;;;;6.75;2.58;;;;;;;16.14;100.00;102218.09;6101132;19;20007;-72
2023/08/20 03:47:20;;;;;;;4.72;2.33;;;;;;;16.08;100.00;102208.59;6098119;19;20035;-72
2023/08/20 03:49:25;;;;;;;7.18;2.72;;;;;;;16.05;100.00;102207.88;6100928;19;20042;-72
2023/08/20 03:51:30;;;;;;;5.97;2.42;;;;;;;16.01;100.00;102215.13;6093646;19;20038;-71
2023/08/20 03:53:35;;;;;;;5.40;2.17;;;;;;;15.94;100.00;102208.34;6096471;19;20018;-72
2023/08/20 03:55:40;;;;;;;6.55;2.53;;;;;;;15.93;100.00;102214.53;6100733;19;20034;-72
2023/08/20 03:57:45;;;;;;;4.57;2.30;;;;;;;15.87;100.00;102215.66;6100689;19;20007;-72
2023/08/20 03:59:55;;;;;;;3.25;2.13;;;;;;;15.87;100.00;102212.16;6097492;19;20427;-73
2023/08/20 04:02:00;;;;;;;7.30;2.50;;;;;;;15.85;100.00;102219.28;6101934;19;20003;-72
2023/08/20 04:04:06;;;;;;;5.97;2.42;;;;;;;15.81;100.00;102223.88;6102406;19;20010;-71
2023/08/20 04:06:11;;;;;;;4.90;2.30;;;;;;;15.79;100.00;102228.34;6098432;19;20007;-71
2023/08/20 04:08:15;;;;;;;4.93;2.45;;;;;;;15.76;100.00;102229.34;6098717;19;20002;-71
2023/08/20 04:10:20;;;;;;;9.20;2.97;;;;;;;15.71;100.00;102231.31;6092682;19;20006;-72
2023/08/20 04:12:26;;;;;;;5.13;2.17;;;;;;;15.72;100.00;102242.81;6097100;19;20006;-72
2023/08/20 04:14:31;;;;;;;7.45;2.53;;;;;;;15.62;100.00;102242.25;6095826;19;21084;-72
2023/08/20 04:16:38;;;;;;;7.07;2.60;;;;;;;15.65;100.00;102243.94;6098812;19;20059;-72
2023/08/20 04:18:44;;;;;;;8.05;2.63;;;;;;;15.60;100.00;102244.09;6099700;19;20633;-72
2023/08/20 04:20:49;;;;;;;5.55;2.20;;;;;;;15.58;100.00;102245.94;6097490;19;20010;-71
2023/08/20 04:22:54;;;;;;;6.15;2.60;;;;;;;15.58;100.00;102248.59;6097947;19;20463;-72
2023/08/20 04:24:59;;;;;;;7.45;2.08;;;;;;;15.60;100.00;102252.06;6096462;19;20024;-72
2023/08/20 04:27:08;;;;;;;5.53;2.40;;;;;;;15.60;100.00;102254.69;6095273;19;20002;-74
2023/08/20 04:29:13;;;;;;;6.50;2.63;;;;;;;15.57;100.00;102254.81;6097013;19;20003;-74
2023/08/20 04:31:18;;;;;;;6.82;2.50;;;;;;;15.54;100.00;102268.19;6097447;19;20474;-74
2023/08/20 04:33:28;;;;;;;4.47;2.63;;;;;;;15.50;100.00;102269.22;6094161;19;20011;-73
2023/08/20 04:35:33;;;;;;;8.32;2.42;;;;;;;15.49;100.00;102264.84;6094713;19;20101;-75
2023/08/20 04:37:39;;;;;;;8.20;2.53;;;;;;;15.47;100.00;102259.59;6098250;19;20337;-73
2023/08/20 04:39:44;;;;;;;6.40;2.67;;;;;;;15.44;100.00;102267.69;6098035;19;20237;-75
2023/08/20 04:41:49;;;;;;;6.50;2.72;;;;;;;15.45;100.00;102264.09;6100022;19;20010;-74
2023/08/20 04:43:54;;;;;;;5.90;2.72;;;;;;;15.44;100.00;102265.03;6093857;19;20010;-75
2023/08/20 04:45:59;;;;;;;6.20;2.60;;;;;;;15.45;100.00;102264.09;6091675;19;20007;-77
2023/08/20 04:48:04;;;;;;;6.63;2.88;;;;;;;15.44;100.00;102269.47;6099943;19;20026;-76
2023/08/20 04:50:13;;;;;;;7.53;2.55;;;;;;;15.45;100.00;102269.38;6098203;19;20003;-73
2023/08/20 04:52:19;;;;;;;8.80;2.50;;;;;;;15.47;100.00;102270.19;6097511;19;20081;-76
2023/08/20 04:54:25;;;;;;;7.07;2.40;;;;;;;15.46;100.00;102275.56;6101131;19;20094;-73
2023/08/20 04:56:30;;;;;;;7.75;2.58;;;;;;;15.48;100.00;102276.34;6097846;19;20027;-73
2023/08/20 04:58:35;;;;;;;3.60;2.05;;;;;;;15.47;100.00;102267.56;6099166;19;20035;-76
2023/08/20 05:00:40;;;;;;;5.20;2.55;;;;;;;15.45;100.00;102265.88;6099906;19;20017;-73
2023/08/20 05:02:46;;;;;;;7.25;3.05;;;;;;;15.44;100.00;102270.31;6094718;19;20526;-73
2023/08/20 05:04:52;;;;;;;10.45;3.03;;;;;;;15.48;100.00;102269.31;6100320;19;20006;-74
2023/08/20 05:07:03;;;;;;;9.82;2.90;;;;;;;15.47;100.00;102269.34;6097018;19;20035;-74
2023/08/20 05:09:10;;;;;;;8.45;3.13;;;;;;;15.50;100.00;102274.53;6096807;19;20010;-74
2023/08/20 05:11:15;;;;;;;7.53;3.17;;;;;;;15.47;100.00;102270.19;6098228;19;20002;-75
2023/08/20 05:13:25;;;;;;;11.60;3.67;;;;;;;15.49;100.00;102280.75;6097929;19;20002;-75
2023/08/20 05:15:30;;;;;;;7.93;2.80;;;;;;;15.49;100.00;102278.97;6099527;19;20023;-74
2023/08/20 05:17:35;;;;;;;7.82;2.80;;;;;;;15.50;100.00;102277.16;6100588;19;20007;-76
2023/08/20 05:19:41;;;;;;;7.70;2.88;;;;;;;15.51;100.00;102274.47;6081437;19;20014;-71
2023/08/20 05:21:47;;;;;;;8.75;2.60;;;;;;;15.53;100.00;102277.03;6088854;19;20037;-71
2023/08/20 05:23:55;;;;;;;9.02;2.95;;;;;;;15.57;100.00;102281.31;6095134;19;20356;-72
2023/08/20 05:26:00;;;;;;;7.90;3.08;;;;;;;15.67;100.00;102272.09;6100784;19;20416;-73
2023/08/20 05:28:05;;;;;;;8.82;3.03;;;;;;;15.73;100.00;102277.19;6100499;19;20006;-72
2023/08/20 05:30:11;;;;;;;6.82;3.28;;;;;;;15.82;100.00;102280.38;6102202;19;20010;-71
2023/08/20 05:32:17;;;;;;;8.90;3.67;;;;;;;15.91;100.00;102274.75;6100345;19;20039;-72
2023/08/20 05:34:26;;;;;;;7.30;3.30;;;;;;;15.97;100.00;102275.34;6098204;19;20474;-72
2023/08/20 05:36:32;;;;;;;8.73;3.88;;;;;;;16.10;100.00;102281.00;6100467;19;20478;-72
2023/08/20 05:38:37;;;;;;;12.50;4.53;;;;;;;16.17;100.00;102271.88;6099457;19;20011;-72
2023/08/20 05:40:48;;;;;;;6.57;3.40;;;;;;;16.36;100.00;102277.28;6094281;19;20019;-72
2023/08/20 05:42:53;;;;;;;9.38;3.17;;;;;;;16.56;100.00;102265.84;6100057;19;20018;-72
2023/08/20 05:45:01;;;;;;;10.65;3.15;;;;;;;16.79;100.00;102270.16;6094970;19;20097;-72
2023/08/20 05:47:06;;;;;;;11.70;3.58;;;;;;;17.06;100.00;102270.75;6090890;19;20079;-72
2023/08/20 05:49:12;;;;;;;10.30;3.85;;;;;;;17.32;100.00;102266.03;6097037;19;20562;-72
2023/08/20 05:51:16;;;;;;;13.05;3.72;;;;;;;17.58;100.00;102267.47;6095521;19;20034;-73
2023/08/20 05:53:21;;;;;;;8.65;3.55;;;;;;;17.83;100.00;102264.56;6092097;19;20006;-73
2023/08/20 05:55:27;;;;;;;9.68;3.30;;;;;;;18.12;99.60;102270.25;6097992;19;20077;-73
2023/08/20 05:57:36;;;;;;;8.77;3.17;;;;;;;18.28;98.36;102276.53;6091453;19;20010;-72
2023/08/20 05:59:47;;;;;;;9.05;3.60;;;;;;;18.47;98.25;102270.28;6095548;19;20011;-71
2023/08/20 06:01:59;;;;;;;9.82;3.60;;;;;;;18.65;96.50;102258.69;6095263;19;20346;-71
2023/08/20 06:04:10;;;;;;;10.85;3.15;;;;;;;18.92;95.58;102259.06;6098323;19;20491;-72
2023/08/20 06:06:17;;;;;;;6.95;2.72;;;;;;;19.10;94.65;102265.22;6087945;19;20090;-72
2023/08/20 06:08:30;;;;;;;12.00;2.88;;;;;;;19.23;93.84;102270.75;6088134;19;20007;-72
2023/08/20 06:10:35;;;;;;;5.85;2.58;;;;;;;19.50;93.27;102265.69;6097810;19;20011;-74
2023/08/20 06:12:46;;;;;;;7.47;3.05;;;;;;;19.72;91.72;102271.59;6091771;19;20503;-72
2023/08/20 06:14:58;;;;;;;9.85;2.95;;;;;;;19.84;91.04;102274.50;6099474;19;20392;-72
2023/08/20 06:17:01;;;;;;;9.30;3.10;;;;;;;19.91;91.37;102273.22;6096296;19;20007;-73
2023/08/20 06:19:24;;;;;;;10.20;3.30;;;;;;;20.15;89.70;102276.28;6090273;19;20471;-74
2023/08/20 06:21:26;;;;;;;8.43;3.20;;;;;;;20.32;89.15;102277.94;6096840;19;20128;-72
2023/08/20 06:23:32;;;;;;;8.40;3.03;;;;;;;20.25;87.56;102271.25;6097697;19;20038;-72
2023/08/20 06:25:48;;;;;;;8.20;3.03;;;;;;;20.44;88.46;102279.06;6087229;19;20006;-72
2023/08/20 06:27:55;;;;;;;8.95;3.03;;;;;;;20.63;87.53;102270.81;6098947;19;20046;-71
2023/08/20 06:30:05;;;;;;;11.82;3.20;;;;;;;20.91;86.50;102286.06;6081669;19;20022;-73
2023/08/20 06:32:13;;;;;;;7.20;2.80;;;;;;;20.99;85.67;102279.28;6092350;19;20164;-72
2023/08/20 06:34:18;;;;;;;9.32;2.92;;;;;;;21.25;84.58;102276.78;6091429;19;20020;-72
2023/08/20 06:36:45;;;;;;;7.70;2.63;;;;;;;21.29;84.22;102278.31;6083436;19;20642;-72
2023/08/20 06:39:06;;;;;;;7.32;2.70;;;;;;;21.52;83.07;102273.34;6073129;19;20022;-72
2023/08/20 06:41:13;;;;;;;8.45;2.53;;;;;;;21.34;82.96;102270.00;6083591;19;20392;-72
2023/08/20 06:43:29;;;;;;;8.30;2.15;;;;;;;21.35;82.52;102269.88;6092776;19;20106;-72
2023/08/20 06:45:40;;;;;;;6.75;2.30;;;;;;;21.44;81.71;102280.03;6096239;19;20593;-72
2023/08/20 06:47:48;;;;;;;9.57;2.50;;;;;;;21.52;81.37;102268.00;6083421;19;20114;-72
2023/08/20 06:49:55;;;;;;;9.25;2.65;;;;;;;21.63;80.38;102276.19;6092818;19;20039;-71
2023/08/20 06:52:03;;;;;;;4.82;2.35;;;;;;;21.39;81.11;102283.97;6094186;19;20006;-72
2023/08/20 06:54:09;;;;;;;8.95;2.90;;;;;;;;;;6087393;19;20513;-76
2023/08/20 06:56:21;;;;;;;10.07;3.63;;;;;;;21.69;80.18;102282.00;6094347;19;20564;-75
2023/08/20 06:58:31;;;;;;;7.20;2.80;;;;;;;22.04;79.25;102288.72;6094459;19;20010;-72
2023/08/20 07:00:40;;;;;;;10.85;3.28;;;;;;;22.02;78.49;102290.63;6095067;19;21103;-71
2023/08/20 07:02:49;;;;;;;6.50;2.60;;;;;;;22.23;77.92;102289.22;6094002;19;20007;-72
2023/08/20 07:04:58;;;;;;;7.10;2.50;;;;;;;22.32;77.37;102299.31;6078707;19;20997;-72
2023/08/20 07:07:04;;;;;;;6.20;2.53;;;;;;;22.74;76.54;102300.03;6095907;19;20006;-73
2023/08/20 07:09:09;;;;;;;7.22;2.40;;;;;;;22.45;75.95;102301.16;6095999;19;20376;-72
2023/08/20 07:11:22;;;;;;;9.38;2.83;;;;;;;22.43;76.22;102300.41;6100289;19;20013;-72
2023/08/20 07:13:34;;;;;;;10.27;2.92;;;;;;;22.41;75.56;102307.69;6096276;19;20030;-72
2023/08/20 07:15:43;;;;;;;10.25;2.80;;;;;;;22.70;75.32;102306.56;6087886;19;20016;-72
2023/08/20 07:17:53;;;;;;;7.85;2.92;;;;;;;22.85;74.36;102309.16;6096843;19;20038;-72
2023/08/20 07:19:59;;;;;;;8.13;2.90;;;;;;;23.08;74.25;102308.44;6091636;19;20042;-71
2023/08/20 07:22:08;;;;;;;8.48;3.20;;;;;;;22.63;74.68;102321.34;6092507;19;20010;-73
2023/08/20 07:24:17;;;;;;;13.48;4.20;;;;;;;22.87;74.17;102308.09;6074439;19;20110;-71
2023/08/20 07:26:24;;;;;;;6.57;2.50;;;;;;;23.17;74.16;102312.28;6089984;19;20003;-75
2023/08/20 07:30:59;;;;;;;7.53;2.53;;;;;;;23.56;71.65;102310.41;6099186;19;20009;-75
2023/08/20 07:33:11;;;;;;;7.63;2.78;;;;;;;23.47;71.75;102306.56;6085157;19;20051;-74
2023/08/20 07:35:23;;;;;;;9.23;2.47;;;;;;;23.71;69.88;102312.00;6097081;19;20451;-72
2023/08/20 07:37:28;;;;;;;4.18;1.92;;;;;;;23.28;70.43;102317.78;6061617;19;20027;-73
2023/08/20 07:39:40;;;;;;;8.93;2.33;;;;;;;23.55;69.73;102322.97;6081432;19;20076;-72
2023/08/20 07:41:49;;;;;;;5.28;2.20;;;;;;;23.77;70.39;102327.66;6090131;19;20007;-72
2023/08/20 07:44:28;;;;;;;7.25;2.17;;;;;;;23.73;70.05;102328.88;6054940;19;20538;-71
2023/08/20 07:46:44;;;;;;;10.68;2.60;;;;;;;24.04;68.29;102330.19;6085698;19;20031;-75
2023/08/20 07:48:56;;;;;;;5.38;2.15;;;;;;;24.22;67.45;102335.13;6072139;19;20822;-75
2023/08/20 07:51:04;;;;;;;;;;;;;;;24.12;68.48;102331.41;6093150;19;20593;-74
2023/08/20 07:53:13;;;;;;;8.23;3.15;;;;;;;24.59;66.87;102333.22;6072314;19;19944;-73
2023/08/20 07:55:20;;;;;;;9.70;3.03;;;;;;;24.46;66.19;102330.66;6072171;19;20531;-74
2023/08/20 07:57:33;;;;;;;5.55;2.20;;;;;;;24.50;67.32;102336.63;6087458;19;20482;-74
2023/08/20 07:59:46;;;;;;;9.10;3.13;;;;;;;24.76;66.78;102337.34;6081420;19;20007;-74
2023/08/20 08:02:15;;;;;;;5.60;2.30;;;;;;;24.50;67.24;102336.63;6085943;19;20017;-72
2023/08/20 08:04:27;;;;;;;7.03;2.22;;;;;;;24.50;66.52;102339.31;6090158;19;20112;-73
2023/08/20 08:06:40;;;;;;;7.82;3.40;;;;;;;24.73;65.99;102348.31;6088292;19;20483;-71
2023/08/20 08:08:55;;;;;;;7.82;2.28;;;;;;;25.04;64.32;102351.31;6098390;19;20063;-73
2023/08/20 08:11:15;;;;;;;8.95;2.90;;;;;;;24.35;66.17;102351.19;6061875;19;20748;-71
2023/08/20 08:13:30;;;;;;;7.53;2.50;;;;;;;24.24;66.95;102350.16;6071097;19;20011;-73
2023/08/20 08:15:41;;;;;;;;;;;;;;;24.56;66.01;102351.44;6096035;19;20035;-75
2023/08/20 08:17:49;;;;;;;9.98;2.83;;;;;;;24.65;65.74;102348.91;6081233;19;19942;-72
2023/08/20 08:19:58;;;;;;;6.03;2.05;;;;;;;25.05;64.83;102353.03;6094124;19;20041;-72
2023/08/20 08:22:03;;;;;;;6.85;2.30;;;;;;;25.17;63.49;102347.59;6092922;19;20023;-72
2023/08/20 08:24:09;;;;;;;5.68;2.10;;;;;;;25.42;63.65;102342.94;6077864;19;20030;-73
2023/08/20 08:26:19;;;;;;;3.90;1.80;;;;;;;24.76;63.56;102345.41;6095914;19;20410;-74
2023/08/20 08:28:35;;;;;;;5.85;2.15;;;;;;;25.07;62.95;102340.34;6078333;19;20056;-72
2023/08/20 08:30:48;;;;;;;7.68;2.13;;;;;;;25.27;63.06;102342.31;6096078;19;20451;-73
2023/08/20 08:33:00;;;;;;;5.60;1.80;;;;;;;25.03;62.51;102350.47;6094543;19;20542;-72
2023/08/20 08:35:07;;;;;;;8.27;2.28;;;;;;;25.06;62.27;102352.91;6095112;19;20023;-72
2023/08/20 08:37:26;;;;;;;6.25;2.20;;;;;;;25.46;61.70;102346.22;6097954;19;20014;-73
2023/08/20 08:39:35;;;;;;;7.57;2.22;;;;;;;25.11;61.34;102348.03;6091628;19;20414;-73
2023/08/20 08:42:02;;;;;;;9.75;2.45;;;;;;;25.06;61.80;102354.75;6091471;19;20020;-72
2023/08/20 08:44:15;;;;;;;5.57;2.22;;;;;;;25.15;62.17;102351.34;6091712;19;20431;-72
2023/08/20 08:46:27;;;;;;;12.48;3.30;;;;;;;24.97;62.11;102361.69;6097492;19;20030;-72
2023/08/20 08:48:48;;;;;;;8.23;2.40;;;;;;;25.42;60.22;102352.84;6083865;19;20010;-74
2023/08/20 08:51:06;;;;;;;5.30;2.08;;;;;;;25.37;59.54;102350.53;6076819;19;20017;-76
2023/08/20 08:53:16;;;;;;;7.47;2.30;;;;;;;25.83;59.85;102349.53;6091528;19;20006;-76
2023/08/20 08:55:23;;;;;;;6.70;1.90;;;;;;;25.22;59.03;102354.44;6095244;19;20505;-76
2023/08/20 08:57:50;;;;;;;3.47;1.85;;;;;;;25.49;58.60;102352.25;6082429;19;20515;-77
2023/08/20 09:00:13;;;;;;;7.63;2.67;;;;;;;25.97;57.79;102357.34;6093320;19;20465;-76
2023/08/20 09:02:27;;;;;;;8.40;3.15;;;;;;;26.12;55.31;102355.25;6096439;19;20031;-76
2023/08/20 09:04:34;;;;;;;6.50;2.37;;;;;;;26.09;56.82;102355.47;6090894;19;20006;-78
2023/08/20 09:07:09;;;;;;;7.78;2.15;;;;;;;26.09;55.94;102365.41;6101487;19;20027;-80
2023/08/20 09:09:19;;;;;;;8.75;2.55;;;;;;;25.72;56.96;102357.59;6097707;19;20373;-75
2023/08/20 09:11:40;;;;;;;4.82;1.77;;;;;;;25.13;58.43;102366.75;6100223;19;20640;-74
2023/08/20 09:14:04;;;;;;;5.15;2.10;;;;;;;25.51;55.90;102362.88;6064533;19;20013;-75
2023/08/20 09:16:13;;;;;;;5.93;1.83;;;;;;;25.92;56.67;102366.78;6094239;19;20007;-75
2023/08/20 09:18:24;;;;;;;7.00;1.95;;;;;;;26.05;55.58;102364.81;6095725;19;20010;-76
2023/08/20 09:21:01;;;;;;;6.07;2.13;;;;;;;26.00;55.22;102367.03;6067937;19;20535;-75
2023/08/20 09:23:50;;;;;;;4.70;1.75;;;;;;;26.49;55.84;102354.88;6067424;19;20007;-74
2023/08/20 09:25:58;;;;;;;;;;;;;;;26.20;55.57;102355.47;6077021;19;20034;-73
2023/08/20 09:28:23;;;;;;;4.78;1.88;;;;;;;26.02;56.75;102355.13;6059022;19;20786;-74
2023/08/20 09:30:39;;;;;;;3.42;1.80;;;;;;;26.57;55.57;102354.22;6093810;19;20608;-80
2023/08/20 09:32:51;;;;;;;3.75;1.80;;;;;;;25.80;54.77;102361.41;6065168;19;20037;-77
2023/08/20 09:37:47;;;;;;;11.82;2.63;;;;;;;26.20;55.59;102366.25;6087511;19;20675;-76
2023/08/20 09:40:08;;;;;;;5.60;2.03;;;;;;;26.22;55.16;102366.09;6092705;19;20019;-76
2023/08/20 09:42:17;;;;;;;5.80;2.88;;;;;;;26.93;54.34;102366.41;6070379;19;20003;-76
2023/08/20 09:44:52;;;;;;;6.35;2.00;;;;;;;26.52;54.97;102364.56;6091497;19;20098;-75
2023/08/20 09:47:05;;;;;;;6.50;2.03;;;;;;;27.06;53.57;102369.75;6089695;19;20007;-73
2023/08/20 09:49:20;;;;;;;6.15;2.42;;;;;;;26.97;54.25;102367.88;6077031;19;20006;-74
2023/08/20 09:51:32;;;;;;;6.45;2.65;;;;;;;26.75;53.75;102368.84;6054856;19;20024;-78
2023/08/20 09:54:35;;;;;;;7.63;1.95;;;;;;;26.96;54.46;102359.88;6057441;19;20032;-76
2023/08/20 09:57:11;;;;;;;7.13;1.85;;;;;;;27.21;52.57;102372.16;6067511;19;20042;-77
2023/08/20 09:59:31;;;;;;;2.60;1.50;;;;;;;27.30;53.25;102368.63;6049790;19;20603;-74
2023/08/20 10:01:58;;;;;;;6.35;1.67;;;;;;;26.44;53.80;102370.56;6094501;19;20050;-74
2023/08/20 10:04:03;;;;;;;5.45;1.55;;;;;;;26.80;54.19;102372.00;6097041;19;20014;-76
2023/08/20 10:06:09;;;;;;;6.18;1.95;;;;;;;27.18;53.31;102369.72;6094911;19;20007;-74